createdAt,value
2017-10-15T00:00:48.634Z,12.40
2017-10-15T00:01:48.753Z,12.47
2017-10-15T00:02:48.654Z,12.46
2017-10-15T00:03:48.671Z,12.35
2017-10-15T00:04:48.682Z,12.43
2017-10-15T00:05:48.694Z,12.35
2017-10-15T00:06:48.783Z,12.35
2017-10-15T00:07:48.718Z,12.36
2017-10-15T00:08:48.800Z,12.37
2017-10-15T00:09:48.734Z,12.32
2017-10-15T00:10:48.813Z,12.29
2017-10-15T00:11:48.760Z,12.32
2017-10-15T00:12:48.770Z,12.32
2017-10-15T00:13:48.830Z,12.25
2017-10-15T00:14:48.797Z,12.31
2017-10-15T00:15:48.945Z,12.31
2017-10-15T00:16:48.820Z,12.25
2017-10-15T00:17:48.963Z,12.28
2017-10-15T00:18:48.845Z,12.22
2017-10-15T00:19:48.975Z,12.25
2017-10-15T00:20:48.870Z,12.24
2017-10-15T00:21:48.986Z,12.22
2017-10-15T00:22:48.894Z,12.17
2017-10-15T00:23:49.003Z,12.24
2017-10-15T00:24:48.923Z,12.22
2017-10-15T00:25:49.016Z,12.24
2017-10-15T00:26:48.965Z,12.13
2017-10-15T00:27:49.028Z,12.18
2017-10-15T00:28:48.962Z,12.13
2017-10-15T00:29:49.043Z,12.07
2017-10-15T00:30:48.987Z,12.09
2017-10-15T00:31:49.052Z,12.10
2017-10-15T00:32:49.011Z,12.09
2017-10-15T00:33:49.073Z,12.06
2017-10-15T00:34:49.031Z,12.13
2017-10-15T00:35:49.184Z,12.07
2017-10-15T00:36:49.056Z,12.07
2017-10-15T00:37:49.200Z,12.04
2017-10-15T00:38:49.080Z,12.12
2017-10-15T00:39:49.215Z,12.15
2017-10-15T00:40:49.104Z,12.04
2017-10-15T00:41:49.113Z,12.04
2017-10-15T00:42:49.126Z,12.04
2017-10-15T00:43:49.135Z,12.02
2017-10-15T00:44:49.255Z,11.99
2017-10-15T00:45:49.161Z,12.02
2017-10-15T00:46:49.263Z,12.02
2017-10-15T00:47:49.179Z,12.02
2017-10-15T00:48:49.273Z,12.03
2017-10-15T00:49:49.206Z,11.90
2017-10-15T00:50:49.311Z,11.86
2017-10-15T00:51:49.228Z,11.87
2017-10-15T00:52:49.301Z,11.99
2017-10-15T00:53:49.253Z,11.97
2017-10-15T00:54:49.262Z,11.88
2017-10-15T00:55:49.276Z,11.94
2017-10-15T00:56:49.433Z,11.97
2017-10-15T00:57:49.299Z,11.94
2017-10-15T00:58:49.315Z,11.94
2017-10-15T00:59:49.412Z,11.97
2017-10-15T01:00:49.332Z,11.97
2017-10-15T01:01:49.467Z,11.97
2017-10-15T01:02:49.356Z,11.90
2017-10-15T01:03:49.481Z,11.86
2017-10-15T01:04:49.376Z,11.94
2017-10-15T01:05:49.444Z,11.88
2017-10-15T01:06:49.405Z,11.83
2017-10-15T01:07:49.506Z,11.83
2017-10-15T01:08:49.433Z,11.87
2017-10-15T01:09:49.435Z,11.88
2017-10-15T01:10:49.448Z,11.83
2017-10-15T01:11:49.533Z,11.86
2017-10-15T01:12:49.474Z,11.84
2017-10-15T01:13:49.558Z,11.88
2017-10-15T01:14:49.494Z,11.80
2017-10-15T01:15:49.667Z,11.87
2017-10-15T01:16:49.519Z,11.80
2017-10-15T01:17:49.679Z,11.87
2017-10-15T01:18:49.540Z,11.84
2017-10-15T01:19:49.693Z,11.78
2017-10-15T01:20:49.564Z,11.81
2017-10-15T01:21:49.707Z,11.68
2017-10-15T01:22:49.582Z,11.65
2017-10-15T01:23:49.717Z,11.70
2017-10-15T01:24:49.609Z,11.75
2017-10-15T01:25:49.616Z,11.63
2017-10-15T01:26:49.637Z,11.65
2017-10-15T01:27:49.642Z,11.73
2017-10-15T01:28:49.759Z,11.63
2017-10-15T01:29:49.667Z,11.63
2017-10-15T01:30:49.765Z,11.63
2017-10-15T01:31:49.688Z,11.63
2017-10-15T01:32:49.696Z,11.66
2017-10-15T01:33:49.785Z,11.69
2017-10-15T01:34:49.722Z,11.59
2017-10-15T01:35:49.907Z,11.63
2017-10-15T01:36:49.749Z,11.54
2017-10-15T01:37:49.913Z,11.54
2017-10-15T01:38:49.770Z,11.52
2017-10-15T01:39:49.926Z,11.48
2017-10-15T01:40:49.789Z,11.59
2017-10-15T01:41:49.835Z,11.66
2017-10-15T01:42:49.812Z,11.59
2017-10-15T01:43:49.953Z,11.55
2017-10-15T01:44:49.839Z,11.50
2017-10-15T01:45:49.968Z,11.52
2017-10-15T01:46:49.857Z,11.47
2017-10-15T01:47:49.983Z,11.51
2017-10-15T01:48:49.884Z,11.47
2017-10-15T01:49:49.998Z,11.51
2017-10-15T01:50:49.906Z,11.45
2017-10-15T01:51:50.005Z,11.50
2017-10-15T01:52:49.921Z,11.47
2017-10-15T01:53:50.017Z,11.41
2017-10-15T01:54:49.952Z,11.51
2017-10-15T01:55:50.032Z,11.45
2017-10-15T01:56:49.975Z,11.43
2017-10-15T01:57:50.150Z,11.44
2017-10-15T01:58:49.993Z,11.41
2017-10-15T01:59:50.106Z,11.44
2017-10-15T02:00:50.014Z,11.44
2017-10-15T02:01:50.030Z,11.40
2017-10-15T02:02:50.194Z,11.37
2017-10-15T02:03:50.086Z,11.36
2017-10-15T02:04:50.200Z,11.36
2017-10-15T02:05:50.078Z,11.37
2017-10-15T02:06:50.215Z,11.40
2017-10-15T02:07:50.100Z,11.44
2017-10-15T02:08:50.225Z,11.40
2017-10-15T02:09:50.121Z,11.37
2017-10-15T02:10:50.243Z,11.36
2017-10-15T02:11:50.148Z,11.33
2017-10-15T02:12:50.255Z,11.37
2017-10-15T02:13:50.159Z,11.29
2017-10-15T02:14:50.267Z,11.35
2017-10-15T02:15:50.186Z,11.30
2017-10-15T02:16:50.280Z,11.40
2017-10-15T02:17:50.207Z,11.27
2017-10-15T02:18:50.396Z,11.30
2017-10-15T02:19:50.229Z,11.23
2017-10-15T02:20:50.342Z,11.18
2017-10-15T02:21:50.254Z,11.25
2017-10-15T02:22:50.425Z,11.25
2017-10-15T02:23:50.276Z,11.22
2017-10-15T02:24:50.439Z,11.26
2017-10-15T02:25:50.298Z,11.25
2017-10-15T02:26:50.314Z,11.17
2017-10-15T02:27:50.318Z,11.19
2017-10-15T02:28:50.469Z,11.19
2017-10-15T02:29:50.341Z,11.10
2017-10-15T02:30:50.357Z,11.18
2017-10-15T02:31:50.489Z,11.04
2017-10-15T02:32:50.375Z,11.18
2017-10-15T02:33:50.497Z,11.11
2017-10-15T02:34:50.402Z,11.14
2017-10-15T02:35:50.513Z,11.04
2017-10-15T02:36:50.418Z,11.05
2017-10-15T02:37:50.531Z,11.00
2017-10-15T02:38:50.442Z,10.96
2017-10-15T02:39:50.641Z,11.04
2017-10-15T02:40:50.458Z,11.02
2017-10-15T02:41:50.656Z,11.00
2017-10-15T02:42:50.485Z,10.89
2017-10-15T02:43:50.674Z,10.92
2017-10-15T02:44:50.515Z,10.94
2017-10-15T02:45:50.521Z,10.82
2017-10-15T02:46:50.687Z,10.86
2017-10-15T02:47:50.556Z,10.90
2017-10-15T02:48:50.718Z,10.86
2017-10-15T02:49:50.561Z,10.86
2017-10-15T02:50:50.817Z,10.86
2017-10-15T02:51:50.584Z,10.82
2017-10-15T02:52:50.733Z,10.79
2017-10-15T02:53:50.610Z,10.75
2017-10-15T02:54:50.740Z,10.81
2017-10-15T02:55:50.628Z,10.79
2017-10-15T02:56:51.789Z,10.79
2017-10-15T02:57:50.650Z,10.79
2017-10-15T02:58:50.660Z,10.81
2017-10-15T02:59:50.775Z,10.81
2017-10-15T03:00:50.683Z,10.81
2017-10-15T03:01:50.794Z,10.72
2017-10-15T03:02:50.705Z,10.76
2017-10-15T03:03:50.914Z,10.69
2017-10-15T03:04:50.729Z,10.75
2017-10-15T03:05:50.930Z,10.71
2017-10-15T03:06:50.750Z,10.72
2017-10-15T03:07:50.941Z,10.71
2017-10-15T03:08:50.773Z,10.67
2017-10-15T03:09:50.946Z,10.71
2017-10-15T03:10:50.793Z,10.72
2017-10-15T03:11:50.966Z,10.74
2017-10-15T03:12:50.818Z,10.71
2017-10-15T03:13:50.828Z,10.68
2017-10-15T03:14:50.984Z,10.68
2017-10-15T03:15:50.850Z,10.63
2017-10-15T03:16:50.910Z,10.64
2017-10-15T03:17:50.872Z,10.75
2017-10-15T03:18:51.014Z,10.72
2017-10-15T03:19:50.886Z,10.60
2017-10-15T03:20:52.059Z,10.57
2017-10-15T03:21:50.916Z,10.53
2017-10-15T03:22:50.929Z,10.57
2017-10-15T03:23:50.936Z,10.64
2017-10-15T03:24:51.053Z,10.53
2017-10-15T03:25:50.958Z,10.53
2017-10-15T03:26:51.182Z,10.51
2017-10-15T03:27:50.980Z,10.56
2017-10-15T03:28:50.994Z,10.53
2017-10-15T03:29:51.000Z,10.51
2017-10-15T03:30:51.197Z,10.51
2017-10-15T03:31:51.024Z,10.53
2017-10-15T03:32:51.212Z,10.49
2017-10-15T03:33:51.045Z,10.49
2017-10-15T03:34:51.223Z,10.53
2017-10-15T03:35:51.067Z,10.56
2017-10-15T03:36:51.237Z,10.48
2017-10-15T03:37:51.092Z,10.54
2017-10-15T03:38:51.251Z,10.42
2017-10-15T03:39:51.114Z,10.53
2017-10-15T03:40:51.263Z,10.44
2017-10-15T03:41:51.134Z,10.38
2017-10-15T03:42:51.146Z,10.48
2017-10-15T03:43:51.151Z,10.44
2017-10-15T03:44:51.294Z,10.48
2017-10-15T03:45:51.171Z,10.46
2017-10-15T03:46:51.303Z,10.41
2017-10-15T03:47:51.196Z,10.42
2017-10-15T03:48:51.420Z,10.38
2017-10-15T03:49:51.220Z,10.40
2017-10-15T03:50:51.433Z,10.40
2017-10-15T03:51:51.237Z,10.41
2017-10-15T03:52:51.447Z,10.42
2017-10-15T03:53:51.261Z,10.41
2017-10-15T03:54:51.462Z,10.38
2017-10-15T03:55:51.280Z,10.40
2017-10-15T03:56:51.300Z,10.35
2017-10-15T03:57:51.305Z,10.33
2017-10-15T03:58:51.315Z,10.42
2017-10-15T03:59:51.328Z,10.37
2017-10-15T04:00:51.345Z,10.40
2017-10-15T04:01:51.507Z,10.44
2017-10-15T04:02:51.357Z,10.40
2017-10-15T04:03:51.521Z,10.34
2017-10-15T04:04:51.380Z,10.34
2017-10-15T04:05:51.539Z,10.34
2017-10-15T04:06:51.397Z,10.34
2017-10-15T04:07:51.548Z,10.30
2017-10-15T04:08:51.419Z,10.23
2017-10-15T04:09:51.563Z,10.30
2017-10-15T04:10:51.442Z,10.33
2017-10-15T04:11:51.452Z,10.19
2017-10-15T04:12:51.465Z,10.31
2017-10-15T04:13:51.591Z,10.28
2017-10-15T04:14:51.483Z,10.26
2017-10-15T04:15:51.603Z,10.23
2017-10-15T04:16:51.505Z,10.25
2017-10-15T04:17:51.616Z,10.25
2017-10-15T04:18:51.536Z,10.26
2017-10-15T04:19:51.630Z,10.17
2017-10-15T04:20:51.548Z,10.26
2017-10-15T04:21:51.644Z,10.26
2017-10-15T04:22:51.584Z,10.15
2017-10-15T04:23:51.659Z,10.28
2017-10-15T04:24:51.592Z,10.16
2017-10-15T04:25:51.613Z,10.26
2017-10-15T04:26:51.615Z,10.20
2017-10-15T04:27:51.682Z,10.20
2017-10-15T04:28:51.660Z,10.19
2017-10-15T04:29:51.699Z,10.15
2017-10-15T04:30:51.660Z,10.19
2017-10-15T04:31:51.712Z,10.16
2017-10-15T04:32:51.672Z,10.22
2017-10-15T04:33:51.731Z,10.10
2017-10-15T04:34:51.696Z,10.19
2017-10-15T04:35:51.738Z,10.07
2017-10-15T04:36:51.718Z,10.09
2017-10-15T04:37:51.735Z,10.10
2017-10-15T04:38:51.738Z,10.12
2017-10-15T04:39:51.867Z,10.09
2017-10-15T04:40:51.765Z,10.13
2017-10-15T04:41:51.773Z,10.13
2017-10-15T04:42:51.887Z,10.09
2017-10-15T04:43:51.791Z,10.13
2017-10-15T04:44:51.900Z,10.01
2017-10-15T04:45:51.810Z,10.10
2017-10-15T04:46:51.915Z,10.10
2017-10-15T04:47:51.838Z,10.05
2017-10-15T04:48:51.936Z,10.09
2017-10-15T04:49:51.855Z,10.04
2017-10-15T04:50:51.944Z,10.02
2017-10-15T04:51:51.878Z,10.02
2017-10-15T04:52:51.885Z,9.97
2017-10-15T04:53:51.902Z,9.97
2017-10-15T04:54:51.909Z,9.99
2017-10-15T04:55:51.980Z,9.99
2017-10-15T04:56:51.933Z,9.99
2017-10-15T04:57:51.990Z,10.02
2017-10-15T04:58:51.950Z,9.97
2017-10-15T04:59:52.008Z,9.94
2017-10-15T05:00:51.972Z,9.98
2017-10-15T05:01:52.125Z,9.89
2017-10-15T05:02:51.995Z,9.84
2017-10-15T05:03:52.002Z,9.89
2017-10-15T05:04:52.113Z,9.84
2017-10-15T05:05:52.032Z,9.86
2017-10-15T05:06:52.033Z,9.91
2017-10-15T05:07:52.164Z,9.87
2017-10-15T05:08:52.054Z,9.87
2017-10-15T05:09:52.183Z,9.87
2017-10-15T05:10:52.076Z,9.82
2017-10-15T05:11:52.191Z,9.83
2017-10-15T05:12:52.097Z,9.82
2017-10-15T05:13:52.204Z,9.77
2017-10-15T05:14:52.118Z,9.82
2017-10-15T05:15:52.219Z,9.83
2017-10-15T05:16:52.140Z,9.84
2017-10-15T05:17:52.234Z,9.84
2017-10-15T05:18:52.157Z,9.84
2017-10-15T05:19:52.247Z,9.82
2017-10-15T05:20:52.179Z,9.82
2017-10-15T05:21:52.188Z,9.80
2017-10-15T05:22:52.263Z,9.82
2017-10-15T05:23:52.210Z,9.80
2017-10-15T05:24:52.279Z,9.86
2017-10-15T05:25:52.237Z,9.84
2017-10-15T05:26:52.394Z,9.79
2017-10-15T05:27:52.254Z,9.79
2017-10-15T05:28:52.407Z,9.84
2017-10-15T05:29:52.272Z,9.82
2017-10-15T05:30:52.424Z,9.74
2017-10-15T05:31:52.293Z,9.74
2017-10-15T05:32:52.432Z,9.83
2017-10-15T05:33:52.315Z,9.72
2017-10-15T05:34:52.449Z,9.80
2017-10-15T05:35:52.335Z,9.79
2017-10-15T05:36:52.461Z,9.74
2017-10-15T05:37:52.362Z,9.73
2017-10-15T05:38:53.501Z,9.79
2017-10-15T05:39:52.377Z,9.65
2017-10-15T05:40:52.489Z,9.69
2017-10-15T05:41:52.399Z,9.69
2017-10-15T05:42:52.404Z,9.61
2017-10-15T05:43:52.517Z,9.73
2017-10-15T05:44:52.430Z,9.68
2017-10-15T05:45:52.523Z,9.66
2017-10-15T05:46:52.446Z,9.61
2017-10-15T05:47:52.553Z,9.62
2017-10-15T05:48:52.471Z,9.72
2017-10-15T05:49:52.547Z,9.66
2017-10-15T05:50:52.490Z,9.66
2017-10-15T05:51:52.560Z,9.64
2017-10-15T05:52:52.508Z,9.64
2017-10-15T05:53:52.524Z,9.65
2017-10-15T05:54:52.530Z,9.65
2017-10-15T05:55:52.691Z,9.64
2017-10-15T05:56:52.550Z,9.69
2017-10-15T05:57:52.701Z,9.62
2017-10-15T05:58:52.572Z,9.69
2017-10-15T05:59:52.717Z,9.65
2017-10-15T06:00:52.590Z,9.64
2017-10-15T06:01:52.728Z,9.62
2017-10-15T06:02:52.617Z,9.64
2017-10-15T06:03:52.629Z,9.66
2017-10-15T06:04:52.748Z,9.65
2017-10-15T06:05:52.642Z,9.61
2017-10-15T06:06:52.769Z,9.69
2017-10-15T06:07:52.666Z,9.62
2017-10-15T06:08:52.776Z,9.69
2017-10-15T06:09:52.683Z,9.69
2017-10-15T06:10:52.694Z,9.69
2017-10-15T06:11:52.802Z,9.65
2017-10-15T06:12:52.716Z,9.66
2017-10-15T06:13:52.817Z,9.64
2017-10-15T06:14:52.737Z,9.66
2017-10-15T06:15:52.743Z,9.62
2017-10-15T06:16:52.755Z,9.77
2017-10-15T06:17:52.760Z,9.66
2017-10-15T06:18:52.774Z,9.68
2017-10-15T06:19:53.873Z,9.72
2017-10-15T06:20:52.797Z,9.74
2017-10-15T06:21:52.975Z,9.73
2017-10-15T06:22:52.816Z,9.69
2017-10-15T06:23:52.984Z,9.73
2017-10-15T06:24:52.836Z,9.77
2017-10-15T06:25:52.844Z,9.74
2017-10-15T06:26:52.853Z,9.74
2017-10-15T06:27:52.870Z,9.73
2017-10-15T06:28:52.876Z,9.76
2017-10-15T06:29:52.885Z,9.74
2017-10-15T06:30:52.899Z,9.82
2017-10-15T06:31:52.906Z,9.79
2017-10-15T06:32:52.914Z,9.83
2017-10-15T06:33:52.925Z,9.82
2017-10-15T06:34:52.934Z,9.84
2017-10-15T06:35:52.949Z,9.82
2017-10-15T06:36:52.955Z,9.86
2017-10-15T06:37:52.978Z,9.87
2017-10-15T06:38:52.981Z,9.89
2017-10-15T06:39:53.087Z,9.99
2017-10-15T06:40:52.997Z,9.94
2017-10-15T06:41:53.106Z,9.99
2017-10-15T06:42:53.023Z,9.99
2017-10-15T06:43:53.030Z,9.99
2017-10-15T06:44:53.039Z,10.02
2017-10-15T06:45:53.048Z,10.04
2017-10-15T06:46:53.056Z,10.10
2017-10-15T06:47:53.070Z,10.09
2017-10-15T06:48:53.079Z,10.07
2017-10-15T06:49:53.087Z,10.16
2017-10-15T06:50:53.101Z,10.12
2017-10-15T06:51:53.106Z,10.15
2017-10-15T06:52:53.122Z,10.20
2017-10-15T06:53:53.129Z,10.25
2017-10-15T06:54:53.137Z,10.26
2017-10-15T06:55:53.148Z,10.31
2017-10-15T06:56:53.158Z,10.35
2017-10-15T06:57:53.170Z,10.38
2017-10-15T06:58:53.178Z,10.37
2017-10-15T06:59:53.186Z,10.34
2017-10-15T07:00:53.196Z,10.35
2017-10-15T07:01:53.203Z,10.42
2017-10-15T07:02:53.219Z,10.35
2017-10-15T07:03:53.228Z,10.38
2017-10-15T07:04:53.237Z,10.46
2017-10-15T07:05:53.247Z,10.51
2017-10-15T07:06:53.373Z,10.49
2017-10-15T07:07:53.267Z,10.46
2017-10-15T07:08:53.385Z,10.60
2017-10-15T07:09:53.285Z,10.60
2017-10-15T07:10:53.298Z,10.60
2017-10-15T07:11:53.306Z,10.64
2017-10-15T07:12:53.323Z,10.64
2017-10-15T07:13:53.327Z,10.64
2017-10-15T07:14:53.427Z,10.71
2017-10-15T07:15:53.347Z,10.75
2017-10-15T07:16:53.447Z,10.81
2017-10-15T07:17:53.367Z,10.76
2017-10-15T07:18:53.558Z,10.82
2017-10-15T07:19:53.390Z,10.87
2017-10-15T07:20:53.571Z,10.94
2017-10-15T07:21:53.413Z,11.00
2017-10-15T07:22:53.584Z,11.00
2017-10-15T07:23:53.430Z,10.99
2017-10-15T07:24:53.600Z,11.15
2017-10-15T07:25:53.449Z,11.07
2017-10-15T07:26:53.457Z,11.19
2017-10-15T07:27:53.469Z,11.15
2017-10-15T07:28:53.476Z,11.25
2017-10-15T07:29:53.485Z,11.22
2017-10-15T07:30:53.499Z,11.19
2017-10-15T07:31:53.507Z,11.17
2017-10-15T07:32:53.515Z,11.15
2017-10-15T07:33:53.525Z,11.25
2017-10-15T07:34:53.535Z,11.26
2017-10-15T07:35:53.572Z,11.40
2017-10-15T07:36:53.569Z,11.41
2017-10-15T07:37:53.585Z,11.41
2017-10-15T07:38:53.580Z,11.50
2017-10-15T07:39:53.597Z,11.45
2017-10-15T07:40:53.602Z,11.47
2017-10-15T07:41:53.615Z,11.54
2017-10-15T07:42:53.612Z,11.51
2017-10-15T07:43:53.624Z,11.48
2017-10-15T07:44:53.633Z,11.60
2017-10-15T07:45:53.641Z,11.62
2017-10-15T07:46:53.654Z,11.63
2017-10-15T07:47:53.669Z,11.60
2017-10-15T07:48:53.672Z,11.62
2017-10-15T07:49:53.685Z,11.63
2017-10-15T07:50:53.691Z,11.80
2017-10-15T07:51:53.702Z,11.75
2017-10-15T07:52:53.712Z,11.78
2017-10-15T07:53:53.726Z,11.75
2017-10-15T07:54:53.731Z,11.83
2017-10-15T07:55:53.748Z,11.83
2017-10-15T07:56:53.752Z,11.81
2017-10-15T07:57:53.762Z,11.90
2017-10-15T07:58:53.771Z,11.95
2017-10-15T07:59:53.788Z,11.94
2017-10-15T08:00:53.804Z,11.94
2017-10-15T08:01:53.902Z,12.07
2017-10-15T08:02:53.810Z,12.07
2017-10-15T08:03:53.823Z,12.07
2017-10-15T08:04:53.839Z,12.13
2017-10-15T08:05:53.844Z,12.17
2017-10-15T08:06:53.855Z,12.22
2017-10-15T08:07:53.861Z,12.24
2017-10-15T08:08:53.867Z,12.27
2017-10-15T08:09:53.886Z,12.28
2017-10-15T08:10:53.893Z,12.29
2017-10-15T08:11:53.899Z,12.32
2017-10-15T08:12:53.935Z,12.37
2017-10-15T08:13:53.917Z,12.39
2017-10-15T08:14:53.925Z,12.43
2017-10-15T08:15:53.948Z,12.37
2017-10-15T08:16:53.951Z,12.45
2017-10-15T08:17:53.958Z,12.36
2017-10-15T08:18:53.969Z,12.39
2017-10-15T08:19:53.981Z,12.47
2017-10-15T08:20:54.016Z,12.53
2017-10-15T08:21:53.999Z,12.61
2017-10-15T08:22:54.009Z,12.58
2017-10-15T08:23:54.021Z,12.68
2017-10-15T08:24:54.031Z,12.61
2017-10-15T08:25:54.047Z,12.64
2017-10-15T08:26:54.049Z,12.76
2017-10-15T08:27:54.060Z,12.79
2017-10-15T08:28:54.069Z,12.82
2017-10-15T08:29:54.193Z,12.87
2017-10-15T08:30:54.090Z,12.90
2017-10-15T08:31:54.104Z,12.95
2017-10-15T08:32:54.214Z,12.93
2017-10-15T08:33:54.128Z,12.95
2017-10-15T08:34:54.134Z,12.98
2017-10-15T08:35:54.150Z,13.01
2017-10-15T08:36:54.237Z,13.11
2017-10-15T08:37:54.163Z,13.12
2017-10-15T08:38:54.251Z,13.11
2017-10-15T08:39:54.180Z,13.20
2017-10-15T08:40:54.263Z,13.28
2017-10-15T08:41:54.208Z,13.37
2017-10-15T08:42:54.279Z,13.42
2017-10-15T08:43:54.227Z,13.44
2017-10-15T08:44:54.233Z,13.50
2017-10-15T08:45:54.253Z,13.53
2017-10-15T08:46:54.258Z,13.54
2017-10-15T08:47:54.265Z,13.60
2017-10-15T08:48:54.271Z,13.60
2017-10-15T08:49:54.789Z,13.77
2017-10-15T08:50:54.305Z,13.79
2017-10-15T08:51:54.311Z,13.86
2017-10-15T08:52:54.315Z,13.93
2017-10-15T08:53:54.323Z,13.90
2017-10-15T08:54:54.338Z,13.96
2017-10-15T08:55:54.351Z,13.97
2017-10-15T08:56:54.357Z,14.07
2017-10-15T08:57:54.379Z,14.05
2017-10-15T08:58:54.381Z,14.15
2017-10-15T08:59:54.388Z,14.18
2017-10-15T09:00:54.402Z,14.23
2017-10-15T09:01:54.410Z,14.22
2017-10-15T09:02:54.420Z,14.29
2017-10-15T09:03:54.435Z,14.47
2017-10-15T09:04:54.443Z,14.45
2017-10-15T09:05:54.455Z,14.44
2017-10-15T09:06:54.461Z,14.58
2017-10-15T09:07:54.478Z,14.62
2017-10-15T09:08:54.486Z,14.69
2017-10-15T09:09:54.513Z,14.72
2017-10-15T09:10:54.511Z,14.77
2017-10-15T09:11:54.520Z,14.84
2017-10-15T09:12:54.530Z,14.82
2017-10-15T09:13:54.544Z,14.84
2017-10-15T09:14:54.549Z,14.94
2017-10-15T09:15:54.564Z,14.99
2017-10-15T09:16:54.573Z,15.02
2017-10-15T09:17:54.584Z,15.06
2017-10-15T09:18:54.595Z,15.19
2017-10-15T09:19:54.607Z,15.29
2017-10-15T09:20:54.639Z,15.29
2017-10-15T09:21:54.625Z,15.28
2017-10-15T09:22:54.756Z,15.29
2017-10-15T09:23:54.669Z,15.42
2017-10-15T09:24:54.771Z,15.46
2017-10-15T09:25:54.668Z,15.49
2017-10-15T09:26:54.782Z,15.64
2017-10-15T09:27:54.698Z,15.65
2017-10-15T09:28:54.802Z,15.64
2017-10-15T09:29:54.714Z,15.76
2017-10-15T09:30:54.815Z,15.82
2017-10-15T09:31:54.745Z,15.88
2017-10-15T09:32:54.825Z,15.84
2017-10-15T09:33:54.762Z,15.94
2017-10-15T09:34:54.836Z,15.91
2017-10-15T09:35:54.781Z,16.04
2017-10-15T09:36:54.850Z,16.08
2017-10-15T09:37:54.809Z,16.13
2017-10-15T09:38:54.864Z,16.16
2017-10-15T09:39:54.825Z,16.15
2017-10-15T09:40:54.872Z,16.24
2017-10-15T09:41:54.853Z,16.15
2017-10-15T09:42:54.868Z,16.17
2017-10-15T09:43:54.899Z,16.41
2017-10-15T09:44:54.891Z,16.49
2017-10-15T09:45:54.910Z,16.39
2017-10-15T09:46:54.913Z,16.43
2017-10-15T09:47:55.035Z,16.53
2017-10-15T09:48:54.937Z,16.56
2017-10-15T09:49:54.941Z,16.60
2017-10-15T09:50:54.954Z,16.58
2017-10-15T09:51:55.056Z,16.68
2017-10-15T09:52:54.982Z,16.75
2017-10-15T09:53:55.070Z,16.81
2017-10-15T09:54:55.007Z,16.81
2017-10-15T09:55:55.085Z,16.84
2017-10-15T09:56:55.030Z,16.93
2017-10-15T09:57:55.035Z,16.96
2017-10-15T09:58:55.105Z,16.91
2017-10-15T09:59:55.060Z,16.89
2017-10-15T10:00:55.115Z,16.93
2017-10-15T10:01:55.081Z,16.91
2017-10-15T10:02:55.127Z,17.06
2017-10-15T10:03:55.106Z,17.11
2017-10-15T10:04:55.139Z,17.19
2017-10-15T10:05:55.123Z,17.29
2017-10-15T10:06:55.157Z,17.33
2017-10-15T10:07:55.151Z,17.29
2017-10-15T10:08:55.274Z,17.38
2017-10-15T10:09:55.169Z,17.44
2017-10-15T10:10:55.286Z,17.46
2017-10-15T10:11:55.193Z,17.49
2017-10-15T10:12:55.204Z,17.45
2017-10-15T10:13:55.307Z,17.54
2017-10-15T10:14:55.234Z,17.54
2017-10-15T10:15:55.321Z,17.52
2017-10-15T10:16:55.255Z,17.46
2017-10-15T10:17:55.335Z,17.57
2017-10-15T10:18:55.279Z,17.51
2017-10-15T10:19:56.376Z,17.59
2017-10-15T10:20:55.305Z,17.70
2017-10-15T10:21:55.363Z,17.78
2017-10-15T10:22:55.332Z,17.79
2017-10-15T10:23:55.377Z,17.92
2017-10-15T10:24:55.347Z,17.87
2017-10-15T10:25:55.393Z,17.95
2017-10-15T10:26:55.370Z,18.03
2017-10-15T10:27:55.377Z,18.13
2017-10-15T10:28:55.516Z,18.07
2017-10-15T10:29:55.405Z,18.31
2017-10-15T10:30:55.531Z,18.26
2017-10-15T10:31:55.437Z,18.29
2017-10-15T10:32:55.539Z,18.29
2017-10-15T10:33:55.452Z,18.33
2017-10-15T10:34:55.555Z,18.37
2017-10-15T10:35:55.477Z,18.38
2017-10-15T10:36:55.571Z,18.31
2017-10-15T10:37:55.508Z,18.43
2017-10-15T10:38:55.589Z,18.50
2017-10-15T10:39:55.526Z,18.58
2017-10-15T10:40:55.542Z,18.63
2017-10-15T10:41:55.551Z,18.62
2017-10-15T10:42:55.612Z,18.66
2017-10-15T10:43:55.586Z,18.77
2017-10-15T10:44:55.619Z,18.77
2017-10-15T10:45:55.593Z,18.75
2017-10-15T10:46:55.633Z,18.75
2017-10-15T10:47:55.617Z,18.81
2017-10-15T10:48:55.648Z,18.83
2017-10-15T10:49:55.647Z,18.83
2017-10-15T10:50:55.763Z,18.83
2017-10-15T10:51:55.667Z,18.90
2017-10-15T10:52:55.784Z,18.92
2017-10-15T10:53:55.689Z,18.99
2017-10-15T10:54:55.704Z,19.04
2017-10-15T10:55:55.713Z,19.04
2017-10-15T10:56:55.802Z,19.08
2017-10-15T10:57:55.742Z,19.14
2017-10-15T10:58:55.816Z,19.14
2017-10-15T10:59:55.765Z,19.22
2017-10-15T11:00:55.830Z,19.30
2017-10-15T11:01:55.790Z,19.31
2017-10-15T11:02:55.847Z,19.37
2017-10-15T11:03:55.812Z,19.39
2017-10-15T11:04:55.858Z,19.47
2017-10-15T11:05:55.841Z,19.49
2017-10-15T11:06:55.871Z,19.39
2017-10-15T11:07:55.862Z,19.41
2017-10-15T11:08:55.885Z,19.55
2017-10-15T11:09:55.889Z,19.59
2017-10-15T11:10:56.002Z,19.64
2017-10-15T11:11:55.910Z,19.55
2017-10-15T11:12:56.012Z,19.54
2017-10-15T11:13:55.935Z,19.58
2017-10-15T11:14:56.033Z,19.62
2017-10-15T11:15:55.971Z,19.64
2017-10-15T11:16:56.085Z,19.55
2017-10-15T11:17:55.992Z,19.52
2017-10-15T11:18:56.058Z,19.52
2017-10-15T11:19:56.009Z,19.58
2017-10-15T11:20:56.071Z,19.56
2017-10-15T11:21:56.034Z,19.54
2017-10-15T11:22:56.045Z,19.67
2017-10-15T11:23:56.060Z,19.63
2017-10-15T11:24:56.096Z,19.77
2017-10-15T11:25:56.080Z,19.69
2017-10-15T11:26:56.108Z,19.88
2017-10-15T11:27:56.107Z,19.99
2017-10-15T11:28:56.222Z,20.00
2017-10-15T11:29:56.129Z,20.06
2017-10-15T11:30:56.236Z,20.06
2017-10-15T11:31:56.161Z,20.10
2017-10-15T11:32:56.262Z,20.16
2017-10-15T11:33:56.184Z,20.14
2017-10-15T11:34:56.263Z,20.14
2017-10-15T11:35:56.207Z,20.09
2017-10-15T11:36:56.216Z,20.16
2017-10-15T11:37:56.242Z,20.24
2017-10-15T11:38:56.298Z,20.25
2017-10-15T11:39:56.259Z,20.21
2017-10-15T11:40:56.315Z,20.16
2017-10-15T11:41:56.279Z,20.14
2017-10-15T11:42:56.327Z,20.32
2017-10-15T11:43:56.303Z,20.24
2017-10-15T11:44:56.342Z,20.26
2017-10-15T11:45:56.334Z,20.37
2017-10-15T11:46:56.356Z,20.48
2017-10-15T11:47:56.358Z,20.48
2017-10-15T11:48:56.419Z,20.50
2017-10-15T11:49:56.381Z,20.55
2017-10-15T11:50:56.432Z,20.63
2017-10-15T11:51:56.406Z,20.66
2017-10-15T11:52:56.446Z,20.75
2017-10-15T11:53:56.459Z,20.74
2017-10-15T11:54:56.459Z,20.63
2017-10-15T11:55:56.458Z,20.74
2017-10-15T11:56:56.576Z,20.84
2017-10-15T11:57:56.488Z,20.81
2017-10-15T11:58:56.590Z,20.81
2017-10-15T11:59:56.510Z,20.81
2017-10-15T12:00:56.605Z,20.85
2017-10-15T12:01:56.535Z,20.81
2017-10-15T12:02:56.617Z,20.87
2017-10-15T12:03:56.592Z,20.82
2017-10-15T12:04:56.631Z,20.84
2017-10-15T12:05:56.586Z,20.81
2017-10-15T12:06:56.646Z,20.90
2017-10-15T12:07:56.611Z,20.88
2017-10-15T12:08:56.661Z,20.85
2017-10-15T12:09:56.636Z,20.87
2017-10-15T12:10:56.671Z,20.84
2017-10-15T12:11:56.662Z,20.90
2017-10-15T12:12:56.788Z,20.97
2017-10-15T12:13:56.690Z,20.97
2017-10-15T12:14:56.801Z,21.12
2017-10-15T12:15:56.714Z,21.14
2017-10-15T12:16:56.726Z,21.09
2017-10-15T12:17:56.820Z,21.18
2017-10-15T12:18:56.758Z,21.22
2017-10-15T12:19:56.834Z,21.21
2017-10-15T12:20:56.778Z,21.21
2017-10-15T12:21:56.848Z,21.21
2017-10-15T12:22:56.808Z,21.39
2017-10-15T12:23:56.862Z,21.39
2017-10-15T12:24:56.834Z,21.37
2017-10-15T12:25:56.875Z,21.36
2017-10-15T12:26:56.856Z,21.45
2017-10-15T12:27:56.890Z,21.40
2017-10-15T12:28:56.884Z,21.35
2017-10-15T12:29:57.001Z,21.36
2017-10-15T12:30:56.908Z,21.39
2017-10-15T12:31:57.017Z,21.51
2017-10-15T12:32:56.937Z,21.46
2017-10-15T12:33:56.951Z,21.43
2017-10-15T12:34:57.039Z,21.52
2017-10-15T12:35:56.981Z,21.40
2017-10-15T12:36:57.050Z,21.40
2017-10-15T12:37:57.005Z,21.45
2017-10-15T12:38:57.063Z,21.48
2017-10-15T12:39:57.032Z,21.46
2017-10-15T12:40:57.077Z,21.60
2017-10-15T12:41:57.057Z,21.64
2017-10-15T12:42:57.090Z,21.61
2017-10-15T12:43:57.080Z,21.62
2017-10-15T12:44:57.207Z,21.60
2017-10-15T12:45:57.110Z,21.61
2017-10-15T12:46:57.127Z,21.67
2017-10-15T12:47:57.142Z,21.76
2017-10-15T12:48:57.232Z,21.66
2017-10-15T12:49:57.176Z,21.67
2017-10-15T12:50:57.251Z,21.70
2017-10-15T12:51:57.189Z,21.69
2017-10-15T12:52:57.260Z,21.73
2017-10-15T12:53:57.228Z,21.70
2017-10-15T12:54:57.278Z,21.69
2017-10-15T12:55:57.242Z,21.66
2017-10-15T12:56:57.288Z,21.67